Weather observations for the past three days for
Hulett Municipal Airport
Metric (Imperial)
Date Time (mdt) Wind (kph) Vis. (km) Weather Sky Cond. Temperature (ºC) Relative Humidity Wind Chill (°C) Heat Index (°C) Pressure Precipitation (cm)
Air Dwpt 6 hour altimeter (cm) sea level (mb) 1 hr 3 hr 6 hr
Max. Min.
10 08:35 SW 9 16.09 Fair CLR 12 6 67% 76.73 0.0
10 08:15 SW 13 16.09 Fair CLR 11 6 72% 76.73 0.0
10 07:55 SW 13 16.09 Fair CLR 8 6 87% 6 76.73 0.0
10 07:35 W 7 16.09 Fair CLR 6 4 87% 5 76.76 0.0
10 07:15 SW 7 16.09 Fair CLR 6 4 87% 5 76.76 0.0
10 06:55 SW 6 16.09 Fair CLR 6 4 87% 76.73 0.0
10 06:35 SW 7 16.09 Fair CLR 4 3 93% 2 76.73 0.0
10 06:15 S 9 16.09 Fair CLR 3 2 93% 1 76.73 0.0
10 05:55 Calm 16.09 Fair CLR 3 1 87% 76.73 0.0
10 05:35 SW 7 16.09 Fair CLR 3 2 93% 1 76.71 0.0
10 05:15 S 9 16.09 Fair CLR 3 1 87% 1 76.71 0.0
10 04:55 S 9 16.09 Partly Cloudy SCT110 3 1 87% 1 76.68 0.0
10 04:35 S 11 16.09 Fair CLR 3 2 93% 0 76.66 0.0
10 04:15 SW 11 16.09 Fair CLR 3 2 93% 0 76.66 0.0
10 03:55 S 11 16.09 Fair CLR 4 2 87% 2 76.66 0.0
10 03:35 S 11 16.09 Partly Cloudy SCT095 4 2 87% 2 76.66 0.0
10 03:15 SW 11 16.09 Fair CLR 5 3 87% 3 76.63 0.0
10 02:55 SW 11 16.09 Fair CLR 6 3 81% 4 76.63 0.0
10 02:35 SW 7 16.09 Partly Cloudy SCT100 5 2 81% 4 76.63 0.0
10 02:15 S 15 16.09 Fair CLR 5 3 87% 2 76.61 0.0
10 01:55 S 13 16.09 Fair CLR 4 2 87% 1 76.63 0.0
10 01:35 S 13 16.09 Fair CLR 3 1 87% 0 76.63 0.0
10 01:15 S 9 16.09 Fair CLR 5 2 81% 3 76.66 0.0
10 00:55 S 11 16.09 Partly Cloudy SCT110 6 3 81% 4 76.66 0.0
10 00:35 S 9 16.09 Partly Cloudy SCT110 5 2 81% 3 76.66 0.0
10 00:15 S 9 16.09 Fair CLR 6 3 81% 4 76.63 0.0
09 23:55 SW 9 16.09 Fair CLR 6 3 81% 4 76.63 0.0
09 23:35 SW 9 16.09 Fair CLR 8 4 76% 7 76.63 0.0
09 23:15 SW 7 16.09 Fair CLR 8 4 76% 7 76.63 0.0
09 22:55 SW 9 16.09 Partly Cloudy SCT049 SCT055 SCT075 7 3 76% 5 76.61 0.0
09 22:35 S 7 16.09 Mostly Cloudy SCT049 BKN065 BKN075 8 3 71% 7 76.63 0.0
09 22:15 Calm 16.09 Overcast BKN065 OVC075 10 4 67% 76.63 0.0
09 21:55 SW 7 16.09 Mostly Cloudy BKN065 BKN075 9 3 66% 8 76.61 0.0
09 21:35 W 6 16.09 Mostly Cloudy BKN075 11 3 58% 76.61 0.0
09 21:15 W 6 16.09 Overcast SCT075 OVC090 11 3 58% 76.58 0.0
09 20:55 W 6 16.09 Overcast OVC090 11 3 58% 76.56 0.0
09 20:35 Calm 16.09 Mostly Cloudy BKN090 10 3 62% 76.5 0.0
09 20:15 Calm 16.09 Partly Cloudy SCT060 SCT120 11 3 58% 76.5 0.0
09 19:55 Calm 16.09 Overcast OVC060 12 2 51% 76.48 0.0
09 19:35 W 6 16.09 Overcast OVC060 13 1 44% 76.45 0.0
09 19:15 Calm 16.09 Overcast OVC060 13 1 44% 76.45 0.0
09 18:55 N 7 16.09 Overcast OVC060 13 1 44% 76.45 0.0
09 18:35 N 7 16.09 Overcast OVC060 13 0 41% 76.43 0.0
09 18:15 Calm 16.09 Mostly Cloudy BKN060 BKN080 13 0 41% 76.4 0.0
09 17:55 N 6 16.09 Mostly Cloudy SCT060 BKN080 14 0 39% 76.4 0.0
09 17:35 N 13 16.09 Partly Cloudy SCT060 SCT080 15 0 36% 76.4 0.0
09 17:15 Calm 16.09 Partly Cloudy SCT070 14 0 39% 76.38 0.0
09 16:55 NE 7 16.09 Mostly Cloudy SCT060 BKN070 14 0 39% 76.38 0.0
09 16:35 Calm 16.09 Overcast BKN060 BKN070 OVC120 15 0 36% 76.38 0.0
09 16:15 NE 9 16.09 Overcast SCT050 BKN080 OVC120 15 0 36% 76.38 0.0
09 15:55 NW 6 16.09 Overcast SCT050 BKN080 OVC090 14 0 39% 76.38 0.0
09 15:35 N 9 16.09 Overcast SCT065 OVC080 13 -1 38% 76.38 0.0
09 15:15 N 7 16.09 Overcast BKN065 OVC080 13 -1 38% 76.38 0.0
09 14:55 N 13 16.09 Overcast SCT055 BKN065 OVC080 15 0 36% 76.38 0.0
09 14:35 N 19 16.09 Thunderstorm in Vicinity SCT055 BKN080 15 0 36% 76.35 0.0
09 14:15 NE 17 16.09 Mostly Cloudy SCT055 BKN090 16 0 34% 76.35 0.0
09 13:55 NE 15 G 28 16.09 Mostly Cloudy SCT049 SCT060 BKN100 15 0 36% 76.33 0.0
09 13:35 NE 13 16.09 Mostly Cloudy SCT049 SCT060 BKN110 15 0 36% 76.33 0.0
09 13:15 NE 15 16.09 Partly Cloudy SCT120 15 1 39% 76.33 0.0
09 12:55 NE 7 16.09 Mostly Cloudy SCT037 SCT050 BKN120 15 2 42% 76.33 0.0
09 12:35 E 19 16.09 Mostly Cloudy BKN050 BKN100 BKN120 15 2 42% 76.33 0.0
09 11:55 NE 20 G 26 16.09 Mostly Cloudy SCT034 SCT044 BKN090 14 3 48% 76.28 0.0
09 11:35 E 15 16.09 Mostly Cloudy SCT034 SCT044 BKN090 14 4 51% 76.28 0.0
09 11:15 NE 17 G 31 16.09 Mostly Cloudy SCT040 SCT080 BKN120 15 4 48% 76.28 0.0
09 10:55 E 15 16.09 Mostly Cloudy SCT034 SCT042 BKN080 14 4 51% 76.28 0.0
09 10:35 E 19 G 26 16.09 Mostly Cloudy SCT034 BKN090 BKN110 14 3 48% 76.25 0.0
09 10:15 E 20 G 26 16.09 Mostly Cloudy SCT090 BKN110 13 3 51% 76.23 0.0
09 09:55 E 13 G 26 16.09 Fair CLR 13 3 51% 76.2 0.0
09 09:35 E 15 16.09 Partly Cloudy SCT120 12 3 54% 76.17 0.0
09 09:15 NE 15 16.09 Mostly Cloudy SCT100 BKN120 12 3 54% 76.17 0.0
09 08:55 E 13 16.09 Mostly Cloudy BKN100 12 3 54% 76.15 0.0
09 08:35 E 11 16.09 Mostly Cloudy BKN120 11 3 58% 76.15 0.0
09 08:15 E 13 16.09 Overcast OVC120 11 2 54% 76.1 0.0
09 07:55 E 11 16.09 Overcast OVC110 10 2 58% 9 76.1 0.0
09 07:35 E 11 16.09 Mostly Cloudy BKN120 10 2 58% 9 76.07 0.0
09 07:15 Calm 16.09 Partly Cloudy SCT090 9 2 62% 76.02 0.0
09 06:55 E 7 16.09 Mostly Cloudy SCT090 BKN110 8 2 66% 7 76.02 0.0
09 06:35 NE 7 16.09 Mostly Cloudy BKN110 8 2 66% 7 76 0.0
09 06:15 E 6 16.09 Mostly Cloudy BKN100 8 2 66% 75.97 0.0
09 05:55 N 9 16.09 Overcast OVC100 8 2 66% 7 75.95 0.0
09 05:35 Calm 16.09 Overcast SCT070 OVC080 8 2 66% 75.92 0.0
09 05:15 Calm 16.09 Overcast SCT070 OVC090 8 2 66% 75.9 0.0
09 04:55 NW 6 16.09 Overcast BKN090 OVC120 8 1 62% 75.9 0.0
09 04:35 S 6 16.09 Mostly Cloudy SCT070 SCT100 BKN120 9 2 62% 75.84 0.0
09 04:15 Calm 16.09 Mostly Cloudy SCT070 BKN100 BKN120 9 2 62% 75.87 0.0
09 03:55 Calm 16.09 Mostly Cloudy BKN110 9 1 58% 75.84 0.0
09 03:35 N 7 16.09 Partly Cloudy SCT100 9 1 58% 8 75.79 0.0
09 03:15 N 6 16.09 Fair CLR 12 1 47% 75.77 0.0
09 02:55 SW 15 16.09 Fair CLR 12 1 47% 75.77 0.0
09 02:35 SW 15 16.09 Partly Cloudy SCT100 12 1 47% 75.77 0.0
09 02:15 S 15 16.09 Partly Cloudy SCT100 12 1 47% 75.77 0.0
09 01:55 SW 15 16.09 Partly Cloudy SCT110 12 1 47% 75.77 0.0
09 01:35 SW 13 16.09 Partly Cloudy SCT100 12 1 47% 75.77 0.0
09 01:15 SW 15 16.09 Partly Cloudy SCT095 SCT120 12 1 47% 75.77 0.0
09 00:55 SW 15 16.09 Mostly Cloudy SCT080 BKN095 BKN110 11 1 50% 75.77 0.0
09 00:35 SW 15 16.09 Partly Cloudy SCT075 SCT095 11 2 54% 75.77 0.0
09 00:15 SW 13 16.09 Fair CLR 10 2 58% 8 75.77 0.0
08 23:55 SW 13 16.09 Fair CLR 10 1 54% 8 75.77 0.0
08 23:35 S 13 16.09 Fair CLR 10 1 54% 8 75.77 0.0
08 23:15 SW 13 16.09 Fair CLR 9 1 58% 7 75.79 0.0
08 22:55 S 13 16.09 Fair CLR 7 1 66% 5 75.79 0.0
08 22:35 S 15 16.09 Fair CLR 9 1 58% 7 75.79 0.0
08 22:15 S 13 16.09 Fair CLR 10 1 54% 8 75.79 0.0
08 21:55 S 11 16.09 Partly Cloudy SCT110 11 1 50% 75.82 0.0
08 21:35 S 11 16.09 Partly Cloudy SCT110 12 1 47% 75.82 0.0
08 21:15 S 11 16.09 Partly Cloudy SCT110 12 1 47% 75.82 0.0
08 20:55 S 7 16.09 Mostly Cloudy BKN110 13 1 44% 75.82 0.0
08 20:35 Calm 16.09 Fair CLR 16 0 34% 75.79 0.0
08 20:15 Calm 16.09 Partly Cloudy SCT110 16 0 34% 75.79 0.0
08 19:55 Calm 16.09 Partly Cloudy SCT110 17 0 32% 75.79 0.0
08 19:35 Calm 16.09 Partly Cloudy SCT080 17 0 32% 75.79 0.0
08 19:15 N 7 16.09 Partly Cloudy SCT080 18 0 30% 75.79 0.0
08 18:55 W 9 16.09 Partly Cloudy SCT090 18 0 30% 75.79 0.0
08 18:35 SW 7 16.09 Mostly Cloudy BKN090 BKN110 18 0 30% 75.82 0.0
08 18:15 W 9 16.09 Mostly Cloudy SCT090 BKN120 18 -1 28% 75.84 0.0
08 17:55 W 13 16.09 Partly Cloudy SCT090 SCT120 20 -1 24% 75.84 0.0
08 17:35 W 11 16.09 Mostly Cloudy SCT090 BKN120 20 -1 24% 75.87 0.0
08 17:15 W 13 16.09 Partly Cloudy SCT090 18 -1 28% 75.87 0.0
08 16:55 NW 7 16.09 Partly Cloudy SCT090 SCT110 19 -1 26% 75.9 0.0
08 16:35 NW 11 G 17 16.09 Mostly Cloudy SCT090 BKN110 19 -1 26% 75.9 0.0
08 16:15 N 13 16.09 Mostly Cloudy BKN100 BKN120 18 -1 28% 75.92 0.0
08 15:55 NW 15 16.09 Mostly Cloudy BKN100 19 -1 26% 75.95 0.0
08 15:35 W 13 16.09 Partly Cloudy SCT080 19 -1 26% 75.95 0.0
08 15:15 NW 11 G 26 16.09 Partly Cloudy SCT090 18 -2 26% 75.97 0.0
08 14:55 N 11 G 26 16.09 Fair CLR 20 -1 24% 76 0.0
08 14:35 NW 19 G 31 16.09 Fair CLR 18 -1 28% 76 0.0
08 14:15 NW 11 G 26 16.09 Partly Cloudy SCT080 SCT090 18 -1 28% 76.02 0.0
08 13:55 NW 13 G 28 16.09 Partly Cloudy SCT080 SCT090 18 -1 28% 76.02 0.0
08 13:35 NW 9 G 33 16.09 Partly Cloudy SCT080 SCT090 18 0 30% 76.05 0.0
08 13:15 NW 13 16.09 Mostly Cloudy SCT080 BKN100 18 0 30% 76.05 0.0
08 12:55 NW 13 16.09 Mostly Cloudy BKN100 18 0 30% 76.07 0.0
08 12:35 N 24 16.09 Mostly Cloudy SCT070 BKN100 17 0 32% 76.07 0.0
08 12:15 NW 15 G 31 16.09 Partly Cloudy SCT070 SCT080 18 0 30% 76.1 0.0
08 11:55 NW 15 G 28 16.09 Partly Cloudy SCT060 SCT080 SCT090 17 0 32% 76.1 0.0
08 11:35 NW 15 G 28 16.09 Partly Cloudy SCT060 17 1 34% 76.1 0.0
08 11:15 N 24 G 31 16.09 Partly Cloudy SCT060 17 1 34% 76.1 0.0
08 10:55 NW 17 16.09 Partly Cloudy SCT060 16 3 42% 76.12 0.0
08 10:35 W 17 16.09 Fair CLR 16 3 42% 76.12 0.0
08 10:15 W 15 16.09 Fair CLR 15 4 48% 76.12 0.0
08 09:55 NW 13 16.09 Fair CLR 15 4 48% 76.12 0.0
08 09:35 NW 6 16.09 Fair CLR 15 5 51% 76.12 0.0
08 09:15 W 11 16.09 Fair CLR 13 5 59% 76.12 0.0
08 08:55 W 11 16.09 Fair CLR 13 5 59% 76.12 0.0
08 08:35 W 9 16.09 Fair CLR 11 4 62% 76.15 0.0
08 08:15 SW 13 16.09 Fair CLR 11 5 67% 76.12 0.0
08 07:55 SW 15 16.09 Partly Cloudy SCT100 10 5 71% 8 76.12 0.0
08 07:35 SW 15 16.09 Mostly Cloudy BKN100 10 4 67% 8 76.1 0.0
08 07:15 SW 13 16.09 Partly Cloudy SCT100 8 4 76% 6 76.12 0.0
08 06:55 SW 15 16.09 Fair CLR 8 3 71% 6 76.07 0.0
08 06:35 SW 13 16.09 Partly Cloudy SCT100 7 3 76% 5 76.07 0.0
08 06:15 SW 15 16.09 Mostly Cloudy BKN100 7 3 76% 5 76.05 0.0
08 05:55 SW 13 16.09 Fair CLR 6 3 81% 4 76.05 0.0
08 05:35 SW 17 16.09 Fair CLR 6 3 81% 3 76.05 0.0
08 05:15 SW 15 16.09 Fair CLR 6 3 81% 3 76.05 0.0
08 04:55 SW 15 16.09 Fair CLR 6 3 81% 3 76.05 0.0
08 04:35 SW 15 16.09 Fair CLR 6 3 81% 3 76.05 0.0
08 04:15 SW 13 16.09 Fair CLR 6 3 81% 4 76.05 0.0
08 03:55 SW 15 16.09 Fair CLR 5 2 81% 2 76.02 0.0
08 03:35 S 13 16.09 Fair CLR 5 2 81% 2 76.02 0.0
08 03:15 S 15 16.09 Partly Cloudy SCT100 5 3 87% 2 76.02 0.0
08 02:55 SW 11 16.09 Mostly Cloudy BKN100 7 4 81% 5 76.02 0.0
08 02:35 SW 11 16.09 Mostly Cloudy SCT075 BKN090 7 4 81% 5 76.02 0.0
08 02:15 SW 13 16.09 Fair CLR 6 3 81% 4 76.02 0.0
08 01:55 SW 11 16.09 Partly Cloudy SCT085 6 3 81% 4 76.02 0.0
08 01:35 SW 11 16.09 Fair CLR 6 3 81% 4 76.02 0.0
08 01:15 SW 13 16.09 Fair CLR 7 4 81% 5 76.02 0.0
08 00:55 SW 11 16.09 Fair CLR 7 4 81% 5 76.05 0.0
08 00:35 SW 15 16.09 Fair CLR 6 4 87% 3 76.02 0.0
08 00:15 SW 13 16.09 Fair CLR 6 4 87% 4 76.02 0.0
07 23:55 SW 13 16.09 Fair CLR 5 3 87% 2 76.02 0.0
07 23:35 S 13 16.09 Fair CLR 7 5 87% 5 76.02 0.0
07 23:15 S 13 16.09 Fair CLR 7 5 87% 5 76.02 0.0
07 22:55 S 11 16.09 Fair CLR 7 5 87% 5 76.02 0.0
07 22:35 SW 9 16.09 Fair CLR 7 5 87% 5 76.02 0.0
07 22:15 SW 9 16.09 Fair CLR 9 5 76% 8 76.02 0.0
07 21:55 SW 11 16.09 Fair CLR 10 6 76% 9 76.02 0.0
07 21:35 SW 9 16.09 Fair CLR 9 6 82% 8 76.02 0.0
07 21:15 SW 11 16.09 Fair CLR 9 6 82% 8 76 0.0
07 20:55 SW 15 16.09 Partly Cloudy SCT065 10 6 76% 8 76 0.0
07 20:35 SW 13 16.09 Mostly Cloudy SCT065 BKN085 10 6 76% 8 75.97 0.0
07 20:15 S 15 16.09 Overcast BKN065 BKN075 OVC085 11 7 77% 75.95 0.0
07 19:55 SW 11 16.09 Overcast BKN065 OVC080 11 6 72% 75.95 0.0
07 19:35 SW 7 16.09 Overcast SCT065 OVC080 12 6 67% 75.92 0.0
07 19:15 SW 11 16.09 Overcast SCT065 OVC080 12 6 67% 75.9 0.0
07 18:55 SW 11 16.09 Overcast SCT065 OVC080 13 6 63% 75.9 0.0
07 18:35 SW 15 16.09 Mostly Cloudy SCT070 BKN075 13 5 59% 75.9 0.0
07 18:15 SW 11 16.09 Partly Cloudy SCT070 13 6 63% 75.87 0.0
07 17:55 SW 11 16.09 Partly Cloudy SCT070 13 6 63% 75.9 0.0
07 17:35 SW 13 16.09 Fair CLR 12 6 67% 75.9 0.0
07 17:15 SW 13 16.09 Partly Cloudy SCT065 SCT095 SCT120 12 6 67% 75.9 0.0
07 16:55 SW 15 16.09 Overcast BKN065 BKN085 OVC120 11 6 72% 75.9 0.0
07 16:35 SW 15 16.09 Overcast SCT055 BKN065 OVC075 10 5 71% 8 75.92 0.0
07 16:15 SW 13 16.09 Overcast SCT065 OVC075 10 5 71% 8 75.9 0.0
07 15:55 SW 11 16.09 Overcast OVC075 10 6 76% 9 75.9 0.0
07 15:35 SW 15 16.09 Overcast BKN080 BKN090 OVC110 10 6 76% 8 75.9 0.0
07 15:15 W 19 16.09 Overcast SCT080 OVC090 11 6 72% 75.9 0.0
07 14:55 SW 7 16.09 Overcast SCT024 BKN075 OVC100 11 6 72% 75.9 0.0 0.3
07 14:35 SE 9 G 26 4.83 Thunderstorm Heavy Rain SCT026 BKN042 OVC070 11 6 72% 75.9 0.0 0.28
07 14:15 W 9 16.09 Overcast SCT012 SCT026 OVC070 12 7 72% 75.87 0.0
07 13:55 W 6 G 30 4.83 Heavy Rain SCT012 SCT023 OVC046 11 6 72% 75.9 0.0 0.15
07 13:35 W 13 16.09 Overcast BKN048 OVC055 15 3 45% 75.87 0.0
07 13:15 W 15 G 26 16.09 Thunderstorm in Vicinity BKN055 OVC070 15 2 42% 75.87 0.0
07 12:55 W 17 G 31 16.09 Mostly Cloudy SCT050 SCT065 BKN090 16 1 36% 75.87 0.0
07 12:35 W 22 G 33 16.09 Mostly Cloudy SCT050 SCT075 BKN090 16 1 36% 75.87 0.0
07 12:15 W 15 G 26 16.09 Mostly Cloudy BKN050 BKN075 BKN090 16 1 36% 75.87 0.0
07 11:55 W 11 16.09 Overcast BKN050 BKN060 OVC075 15 0 36% 75.9 0.0
07 11:35 SW 13 16.09 Mostly Cloudy BKN050 BKN070 BKN095 15 0 36% 75.9 0.0
07 11:15 SW 19 16.09 Mostly Cloudy SCT048 SCT050 BKN070 15 0 36% 75.9 0.0
07 10:55 SW 13 16.09 Overcast BKN048 BKN050 OVC070 13 -1 38% 75.9 0.0
07 10:35 SW 7 16.09 Overcast SCT055 OVC070 13 -1 38% 75.9 0.0
07 10:15 W 9 16.09 Mostly Cloudy SCT055 BKN070 BKN100 13 -1 38% 75.9 0.0
07 09:55 W 9 16.09 Mostly Cloudy SCT065 SCT080 BKN100 12 -1 41% 75.9 0.0
07 09:35 SW 9 16.09 Overcast SCT065 BKN080 OVC090 10 -3 40% 9 75.92 0.0
07 09:15 SW 7 16.09 Overcast SCT065 OVC090 9 -3 43% 8 75.92 0.0
07 08:55 SW 11 16.09 Overcast SCT060 SCT080 OVC100 8 -3 46% 6 75.92 0.0
Date Time (mdt) Wind (kph) Vis. (km) Weather Sky Cond. Air Dwpt Max. Min. Relative Humidity Wind Chill (°C) Heat Index (°C) altimeter (cm) sea level (mb) 1 hr 3 hr 6 hr
6 hour
Temperature (ºC) Pressure Precipitation (cm)